Time;durP1;ratioP1;P1;durP2;ratioP2;P2;SDS_P1;SDS_P2;PMS_P1;PMS_P2;Temp;Humidity;BMP_temperature;BMP_pressure;BME280_temperature;BME280_humidity;BME280_pressure;Samples;Min_cycle;Max_cycle;Signal;HPM_P1;HPM_P2
2022/08/06 00:01:12;;;;;;;0.70;0.70;;;16.10;87.60;;;;;;624700;230;26592;-67
2022/08/06 00:03:40;;;;;;;1.15;0.95;;;16.00;87.60;;;;;;601421;239;26675;-67
2022/08/06 00:06:08;;;;;;;0.75;0.75;;;16.00;87.50;;;;;;629035;227;26531;-67
2022/08/06 00:08:35;;;;;;;0.77;0.77;;;16.00;87.50;;;;;;626084;229;26561;-66
2022/08/06 00:11:02;;;;;;;0.75;0.70;;;16.00;87.50;;;;;;625769;230;26537;-66
2022/08/06 00:13:29;;;;;;;1.48;0.68;;;15.90;87.80;;;;;;602245;237;26874;-66
2022/08/06 00:15:56;;;;;;;0.70;0.70;;;15.90;88.80;;;;;;628861;229;26548;-66
2022/08/06 00:18:24;;;;;;;0.85;0.60;;;15.80;88.80;;;;;;625343;230;26773;-67
2022/08/06 00:20:51;;;;;;;0.77;0.75;;;15.80;89.10;;;;;;625270;230;26542;-67
2022/08/06 00:23:18;;;;;;;0.75;0.50;;;15.70;89.10;;;;;;601921;239;26849;-67
2022/08/06 00:25:46;;;;;;;1.20;0.70;;;15.70;89.10;;;;;;628476;229;26597;-67
2022/08/06 00:28:13;;;;;;;0.82;0.68;;;15.60;89.20;;;;;;625043;230;26774;-67
2022/08/06 00:30:41;;;;;;;1.17;0.60;;;15.50;89.40;;;;;;625025;230;26534;-67
2022/08/06 00:33:08;;;;;;;1.77;0.60;;;15.50;89.20;;;;;;601664;239;26870;-67
2022/08/06 00:35:35;;;;;;;0.68;0.60;;;15.50;89.50;;;;;;628390;229;26574;-67
2022/08/06 00:38:02;;;;;;;0.80;0.80;;;15.40;89.40;;;;;;625020;230;26538;-67
2022/08/06 00:40:30;;;;;;;0.60;0.60;;;15.20;89.80;;;;;;625030;230;26528;-67
2022/08/06 00:42:58;;;;;;;0.50;0.50;;;15.30;90.00;;;;;;601409;237;26593;-67
2022/08/06 00:45:26;;;;;;;0.60;0.60;;;15.30;90.00;;;;;;628120;229;26515;-67
2022/08/06 00:47:54;;;;;;;1.33;0.70;;;15.20;90.10;;;;;;624711;229;26571;-67
2022/08/06 00:50:21;;;;;;;0.52;0.50;;;15.20;90.00;;;;;;624639;230;26551;-67
2022/08/06 00:52:48;;;;;;;1.58;0.68;;;15.20;90.10;;;;;;601395;237;26626;-67
2022/08/06 00:55:16;;;;;;;0.50;0.50;;;15.20;90.10;;;;;;628190;229;26721;-67
2022/08/06 00:57:43;;;;;;;1.87;0.50;;;15.10;90.10;;;;;;624673;230;26569;-67
2022/08/06 01:00:10;;;;;;;1.85;0.60;;;15.10;90.10;;;;;;624691;230;26910;-67
2022/08/06 01:02:38;;;;;;;0.62;0.60;;;15.10;90.10;;;;;;601646;239;26577;-67
2022/08/06 01:05:06;;;;;;;0.50;0.50;;;15.10;90.10;;;;;;628165;229;26535;-67
2022/08/06 01:07:34;;;;;;;0.50;0.40;;;15.10;89.70;;;;;;624674;229;26569;-67
2022/08/06 01:10:01;;;;;;;0.70;0.60;;;15.00;89.50;;;;;;625785;225;26823;-66
2022/08/06 01:12:28;;;;;;;1.85;0.73;;;15.00;89.30;;;;;;628268;226;26637;-67
2022/08/06 01:14:56;;;;;;;0.50;0.50;;;15.00;89.40;;;;;;631508;225;26595;-66
2022/08/06 01:17:54;;;;;;;0.70;0.70;;;15.00;89.30;;;;;;630258;225;26555;-67
2022/08/06 01:20:34;;;;;;;0.95;0.60;;;14.90;89.20;;;;;;625557;226;26603;-66
2022/08/06 01:23:05;;;;;;;0.85;0.57;;;14.90;89.30;;;;;;629064;226;26582;-67
2022/08/06 01:25:40;;;;;;;1.00;0.52;;;14.90;89.30;;;;;;631922;225;26569;-67
2022/08/06 01:28:10;;;;;;;0.73;0.50;;;14.90;88.90;;;;;;629674;225;26825;-66
2022/08/06 01:30:38;;;;;;;0.55;0.55;;;14.90;87.90;;;;;;626874;227;26822;-66
2022/08/06 01:33:06;;;;;;;0.57;0.57;;;14.80;88.10;;;;;;625863;230;26622;-66
2022/08/06 01:35:34;;;;;;;0.50;0.50;;;14.80;88.60;;;;;;626060;230;26585;-67
2022/08/06 01:38:04;;;;;;;0.50;0.50;;;14.70;88.40;;;;;;625766;230;26783;-66
2022/08/06 01:40:32;;;;;;;0.60;0.60;;;14.70;88.80;;;;;;625716;230;26542;-66
2022/08/06 01:43:00;;;;;;;0.40;0.40;;;14.70;88.70;;;;;;625846;230;26569;-67
2022/08/06 01:45:27;;;;;;;0.40;0.40;;;14.70;88.70;;;;;;625952;230;26853;-67
2022/08/06 01:47:54;;;;;;;0.45;0.45;;;14.60;88.70;;;;;;625786;230;26530;-66
2022/08/06 01:50:23;;;;;;;0.40;0.40;;;14.60;88.80;;;;;;625698;230;26791;-66
2022/08/06 01:52:51;;;;;;;0.50;0.50;;;14.60;89.10;;;;;;625649;230;26607;-66
2022/08/06 01:55:18;;;;;;;0.43;0.30;;;14.60;89.30;;;;;;625660;230;26534;-66
2022/08/06 01:57:51;;;;;;;0.57;0.50;;;14.50;89.80;;;;;;625601;230;26606;-66
2022/08/06 02:00:19;;;;;;;0.43;0.43;;;14.50;90.10;;;;;;625596;230;26595;-67
2022/08/06 02:02:47;;;;;;;0.45;0.45;;;14.40;90.20;;;;;;625621;230;26546;-67
2022/08/06 02:05:14;;;;;;;0.47;0.47;;;14.40;90.30;;;;;;625596;230;26615;-67
2022/08/06 02:07:42;;;;;;;0.47;0.47;;;14.40;90.40;;;;;;625818;230;26590;-67
2022/08/06 02:10:10;;;;;;;0.43;0.43;;;14.30;90.50;;;;;;625731;230;26568;-67
2022/08/06 02:12:38;;;;;;;0.80;0.37;;;14.30;90.80;;;;;;625691;230;26588;-67
2022/08/06 02:15:10;;;;;;;1.48;0.60;;;14.30;91.00;;;;;;625674;230;26599;-67
2022/08/06 02:17:38;;;;;;;0.30;0.30;;;14.20;91.00;;;;;;625464;230;27504;-67
2022/08/06 02:20:06;;;;;;;1.35;0.57;;;14.20;91.00;;;;;;625446;230;26777;-67
2022/08/06 02:22:33;;;;;;;0.62;0.50;;;14.20;91.30;;;;;;625649;230;26506;-67
2022/08/06 02:25:01;;;;;;;0.40;0.40;;;14.10;91.50;;;;;;625541;230;26796;-67
2022/08/06 02:27:28;;;;;;;0.60;0.60;;;14.10;91.70;;;;;;625629;230;26501;-67
2022/08/06 02:29:55;;;;;;;0.50;0.50;;;14.10;91.90;;;;;;626944;228;26799;-67
2022/08/06 02:32:23;;;;;;;0.52;0.32;;;14.10;92.20;;;;;;626993;229;26594;-67
2022/08/06 02:34:50;;;;;;;0.73;0.50;;;14.00;92.30;;;;;;626652;229;26796;-67
2022/08/06 02:37:18;;;;;;;0.95;0.50;;;14.00;92.40;;;;;;626580;230;26561;-67
2022/08/06 02:39:49;;;;;;;0.45;0.45;;;14.00;92.70;;;;;;625822;230;26593;-67
2022/08/06 02:42:18;;;;;;;0.60;0.60;;;13.90;92.60;;;;;;625959;230;26557;-67
2022/08/06 02:44:51;;;;;;;0.45;0.45;;;14.00;92.80;;;;;;626039;230;26612;-67
2022/08/06 02:47:21;;;;;;;0.40;0.40;;;14.00;92.90;;;;;;626140;229;26554;-67
2022/08/06 02:49:48;;;;;;;0.47;0.47;;;14.00;92.90;;;;;;625681;230;26548;-67
2022/08/06 02:52:17;;;;;;;0.32;0.32;;;13.90;93.00;;;;;;625847;230;26789;-67
2022/08/06 02:54:47;;;;;;;0.85;0.50;;;13.90;93.00;;;;;;625742;230;26803;-68
2022/08/06 02:57:15;;;;;;;0.50;0.50;;;13.90;93.00;;;;;;625846;230;26562;-68
2022/08/06 02:59:43;;;;;;;0.40;0.40;;;13.80;93.20;;;;;;625656;224;26541;-67
2022/08/06 03:02:11;;;;;;;1.30;0.60;;;13.80;93.20;;;;;;625829;230;26542;-68
2022/08/06 03:04:39;;;;;;;0.50;0.50;;;13.80;93.20;;;;;;625835;230;26565;-68
2022/08/06 03:07:06;;;;;;;0.50;0.50;;;13.80;93.20;;;;;;625769;230;26578;-68
2022/08/06 03:09:33;;;;;;;0.90;0.50;;;13.80;93.30;;;;;;625871;230;26569;-68
2022/08/06 03:12:01;;;;;;;0.60;0.60;;;13.70;93.40;;;;;;625860;230;26523;-67
2022/08/06 03:14:29;;;;;;;1.40;0.52;;;13.70;93.50;;;;;;625921;230;26594;-67
2022/08/06 03:16:57;;;;;;;1.33;0.55;;;13.70;93.40;;;;;;625950;230;26571;-67
2022/08/06 03:19:24;;;;;;;0.65;0.40;;;13.70;93.50;;;;;;625886;230;26580;-67
2022/08/06 03:21:51;;;;;;;0.40;0.40;;;13.60;93.50;;;;;;625924;230;26796;-67
2022/08/06 03:24:18;;;;;;;2.30;0.50;;;13.60;93.50;;;;;;625888;230;26589;-66
2022/08/06 03:26:45;;;;;;;0.82;0.50;;;13.60;93.60;;;;;;625927;230;26830;-67
2022/08/06 03:29:13;;;;;;;0.40;0.40;;;13.60;93.50;;;;;;625825;230;26531;-66
2022/08/06 03:31:40;;;;;;;1.02;0.60;;;13.60;93.50;;;;;;625614;224;26829;-65
2022/08/06 03:34:07;;;;;;;0.60;0.60;;;13.60;93.30;;;;;;625652;224;26569;-66
2022/08/06 03:36:34;;;;;;;0.95;0.50;;;13.60;93.40;;;;;;625511;230;27107;-66
2022/08/06 03:39:02;;;;;;;0.40;0.40;;;13.60;93.40;;;;;;625600;230;27421;-66
2022/08/06 03:41:29;;;;;;;0.35;0.35;;;13.60;93.40;;;;;;626789;228;26573;-66
2022/08/06 03:43:57;;;;;;;0.40;0.40;;;13.60;93.30;;;;;;626856;229;26580;-65
2022/08/06 03:46:28;;;;;;;0.45;0.43;;;13.50;93.60;;;;;;626529;229;26521;-66
2022/08/06 03:48:55;;;;;;;1.58;0.60;;;13.50;93.30;;;;;;626278;230;26785;-66
2022/08/06 03:51:22;;;;;;;1.30;0.50;;;13.50;93.40;;;;;;626117;224;26575;-66
2022/08/06 03:53:49;;;;;;;0.65;0.40;;;13.60;93.50;;;;;;626198;230;26845;-66
2022/08/06 03:56:17;;;;;;;0.30;0.30;;;13.50;93.50;;;;;;626154;230;26591;-66
2022/08/06 03:58:44;;;;;;;0.60;0.60;;;13.50;93.60;;;;;;625812;230;26815;-66
2022/08/06 04:01:11;;;;;;;0.50;0.50;;;13.50;93.50;;;;;;625865;230;26549;-66
2022/08/06 04:03:38;;;;;;;0.40;0.40;;;13.50;93.60;;;;;;625833;230;26813;-66
2022/08/06 04:06:09;;;;;;;0.50;0.50;;;13.50;93.50;;;;;;625932;230;26617;-66
2022/08/06 04:08:34;;;;;;;1.15;0.40;;;13.60;93.40;;;;;;625751;224;26546;-66
2022/08/06 04:11:01;;;;;;;0.20;0.20;;;13.60;93.30;;;;;;625958;230;26777;-66
2022/08/06 04:13:28;;;;;;;0.45;0.45;;;13.50;93.40;;;;;;625981;230;26587;-66
2022/08/06 04:15:55;;;;;;;0.40;0.40;;;13.50;93.50;;;;;;625938;230;27080;-66
2022/08/06 04:18:23;;;;;;;0.50;0.50;;;13.50;93.50;;;;;;625668;230;26547;-66
2022/08/06 04:20:51;;;;;;;0.40;0.40;;;13.60;93.50;;;;;;625849;230;26582;-66
2022/08/06 04:23:19;;;;;;;1.35;0.40;;;13.60;93.50;;;;;;625855;230;26595;-66
2022/08/06 04:25:48;;;;;;;0.60;0.50;;;13.60;93.40;;;;;;625751;230;26543;-66
2022/08/06 04:28:15;;;;;;;0.40;0.40;;;13.60;93.40;;;;;;625448;230;26778;-66
2022/08/06 04:30:42;;;;;;;0.60;0.60;;;13.60;93.10;;;;;;625603;230;26571;-66
2022/08/06 04:33:10;;;;;;;0.50;0.50;;;13.60;93.30;;;;;;625524;230;27313;-66
2022/08/06 04:35:37;;;;;;;0.47;0.35;;;13.60;93.30;;;;;;625444;230;26858;-66
2022/08/06 04:38:05;;;;;;;0.40;0.40;;;13.60;93.30;;;;;;625488;230;26586;-66
2022/08/06 04:40:32;;;;;;;0.40;0.40;;;13.70;93.30;;;;;;625548;230;26919;-66
2022/08/06 04:43:00;;;;;;;0.30;0.30;;;13.70;93.20;;;;;;625568;230;26552;-66
2022/08/06 04:45:27;;;;;;;0.37;0.37;;;13.70;93.30;;;;;;625538;230;26789;-66
2022/08/06 04:47:55;;;;;;;0.70;0.40;;;13.60;93.30;;;;;;625499;230;26638;-65
2022/08/06 04:50:23;;;;;;;0.40;0.40;;;13.70;93.20;;;;;;625556;230;26565;-65
2022/08/06 04:52:51;;;;;;;0.73;0.47;;;13.70;93.10;;;;;;626651;227;26623;-66
2022/08/06 04:55:20;;;;;;;0.40;0.40;;;13.70;93.40;;;;;;626863;229;26642;-65
2022/08/06 04:57:47;;;;;;;0.40;0.40;;;13.70;93.30;;;;;;626461;223;26540;-65
2022/08/06 05:00:14;;;;;;;0.45;0.45;;;13.70;93.30;;;;;;626547;230;26788;-66
2022/08/06 05:02:41;;;;;;;0.40;0.40;;;13.70;93.20;;;;;;626194;230;26564;-65
2022/08/06 05:05:09;;;;;;;0.43;0.43;;;13.70;93.30;;;;;;626213;230;26828;-66
2022/08/06 05:07:37;;;;;;;0.40;0.40;;;13.70;93.30;;;;;;626285;230;26833;-66
2022/08/06 05:10:06;;;;;;;0.32;0.32;;;13.70;93.30;;;;;;626167;230;26608;-66
2022/08/06 05:12:32;;;;;;;0.40;0.40;;;13.60;93.50;;;;;;625812;230;26539;-65
2022/08/06 05:15:02;;;;;;;0.65;0.55;;;13.60;93.60;;;;;;625655;230;26793;-66
2022/08/06 05:17:30;;;;;;;0.60;0.60;;;13.60;93.60;;;;;;625584;230;26534;-65
2022/08/06 05:19:59;;;;;;;0.40;0.40;;;13.60;93.50;;;;;;625955;230;26534;-65
2022/08/06 05:22:27;;;;;;;0.50;0.40;;;13.70;93.40;;;;;;626139;230;26522;-65
2022/08/06 05:24:55;;;;;;;0.40;0.40;;;13.70;93.40;;;;;;626245;230;26517;-65
2022/08/06 05:27:22;;;;;;;0.40;0.40;;;13.70;93.40;;;;;;626220;230;26574;-66
2022/08/06 05:29:49;;;;;;;0.40;0.40;;;13.60;93.40;;;;;;625950;230;26560;-66
2022/08/06 05:32:17;;;;;;;0.30;0.30;;;13.60;93.70;;;;;;625894;230;26793;-65
2022/08/06 05:34:45;;;;;;;0.40;0.40;;;13.70;93.60;;;;;;625823;230;26518;-66
2022/08/06 05:37:12;;;;;;;0.52;0.40;;;13.70;93.50;;;;;;625638;230;26787;-66
2022/08/06 05:39:39;;;;;;;0.47;0.47;;;13.70;93.70;;;;;;625620;230;26595;-66
2022/08/06 05:42:06;;;;;;;0.50;0.50;;;13.70;93.50;;;;;;625596;230;26775;-66
2022/08/06 05:44:33;;;;;;;0.85;0.50;;;13.70;93.40;;;;;;625656;230;26644;-66
2022/08/06 05:47:02;;;;;;;0.55;0.55;;;13.80;93.30;;;;;;625697;229;26776;-66
2022/08/06 05:49:29;;;;;;;0.60;0.60;;;14.10;92.60;;;;;;625409;230;26583;-66
2022/08/06 05:52:02;;;;;;;0.40;0.40;;;14.10;92.60;;;;;;625128;230;26579;-66
2022/08/06 05:55:00;;;;;;;0.50;0.50;;;14.20;92.40;;;;;;625546;230;26817;-66
2022/08/06 05:57:32;;;;;;;0.47;0.40;;;14.40;92.00;;;;;;624747;230;26526;-66
2022/08/06 06:00:00;;;;;;;0.70;0.65;;;14.50;91.50;;;;;;625398;230;26546;-66
2022/08/06 06:02:28;;;;;;;2.62;0.50;;;14.40;91.50;;;;;;625430;224;26586;-66
2022/08/06 06:04:55;;;;;;;0.50;0.50;;;14.50;91.40;;;;;;626931;228;26586;-66
2022/08/06 06:07:23;;;;;;;0.95;0.68;;;14.90;90.50;;;;;;626915;229;26581;-66
2022/08/06 06:09:51;;;;;;;0.85;0.60;;;15.00;90.10;;;;;;626594;229;26526;-66
2022/08/06 06:12:19;;;;;;;0.85;0.60;;;15.00;89.70;;;;;;626730;230;26557;-66
2022/08/06 06:14:47;;;;;;;0.73;0.60;;;15.00;89.70;;;;;;626246;230;26609;-66
2022/08/06 06:17:19;;;;;;;0.82;0.60;;;15.00;89.60;;;;;;626193;230;26589;-66
2022/08/06 06:20:05;;;;;;;0.45;0.43;;;15.20;89.40;;;;;;625679;230;26833;-66
2022/08/06 06:22:34;;;;;;;0.93;0.62;;;15.30;88.20;;;;;;626028;230;26603;-66
2022/08/06 06:25:07;;;;;;;1.15;0.60;;;15.30;87.70;;;;;;625481;228;26510;-66
2022/08/06 06:27:50;;;;;;;0.57;0.57;;;15.40;87.20;;;;;;625627;230;26550;-66
2022/08/06 06:30:17;;;;;;;0.40;0.40;;;15.50;86.70;;;;;;624971;230;26559;-66
2022/08/06 06:33:01;;;;;;;0.45;0.45;;;15.70;85.50;;;;;;625586;230;26816;-66
2022/08/06 06:35:32;;;;;;;1.10;0.80;;;15.50;85.70;;;;;;612315;230;26575;-66
2022/08/06 06:38:07;;;;;;;0.80;0.60;;;15.60;85.20;;;;;;625712;224;26569;-65
2022/08/06 06:40:49;;;;;;;0.50;0.50;;;15.80;84.40;;;;;;625656;230;26548;-65
2022/08/06 06:43:21;;;;;;;0.40;0.40;;;16.00;83.20;;;;;;624720;230;26802;-65
2022/08/06 06:45:57;;;;;;;0.68;0.62;;;15.90;83.10;;;;;;625466;230;26776;-65
2022/08/06 06:48:27;;;;;;;0.80;0.57;;;16.30;80.80;;;;;;624257;230;26599;-65
2022/08/06 06:50:54;;;;;;;0.65;0.65;;;16.30;80.80;;;;;;625129;230;26886;-66
2022/08/06 06:53:21;;;;;;;0.60;0.60;;;16.20;80.90;;;;;;625252;229;26609;-65
2022/08/06 06:55:48;;;;;;;0.70;0.70;;;16.30;80.20;;;;;;625617;230;26780;-65
2022/08/06 06:58:19;;;;;;;0.60;0.60;;;16.30;79.40;;;;;;625440;230;26597;-65
2022/08/06 07:00:46;;;;;;;0.80;0.80;;;16.50;79.40;;;;;;625410;230;27253;-65
2022/08/06 07:03:13;;;;;;;0.77;0.77;;;16.90;77.90;;;;;;625636;230;26574;-65
2022/08/06 07:05:41;;;;;;;0.93;0.70;;;16.80;77.70;;;;;;625563;230;26820;-65
2022/08/06 07:08:08;;;;;;;1.58;0.68;;;16.80;77.30;;;;;;625594;230;26547;-65
2022/08/06 07:10:35;;;;;;;1.40;0.90;;;16.90;76.60;;;;;;625668;230;26562;-65
2022/08/06 07:13:03;;;;;;;0.50;0.50;;;16.90;76.50;;;;;;625666;230;26610;-65
2022/08/06 07:15:30;;;;;;;2.37;1.02;;;17.10;76.00;;;;;;626315;227;26823;-65
2022/08/06 07:17:57;;;;;;;1.33;0.98;;;17.10;75.70;;;;;;626977;229;26558;-66
2022/08/06 07:20:24;;;;;;;0.93;0.93;;;17.20;74.60;;;;;;626677;229;26785;-65
2022/08/06 07:22:52;;;;;;;1.35;1.00;;;17.10;74.40;;;;;;626367;230;26529;-66
2022/08/06 07:25:20;;;;;;;1.30;0.82;;;17.20;74.80;;;;;;626224;230;26557;-66
2022/08/06 07:27:47;;;;;;;4.43;0.93;;;17.20;74.80;;;;;;626218;230;26550;-66
2022/08/06 07:30:15;;;;;;;0.75;0.73;;;17.50;73.30;;;;;;626190;230;26970;-66
2022/08/06 07:32:43;;;;;;;3.72;1.10;;;17.20;73.90;;;;;;626089;230;26561;-66
2022/08/06 07:35:11;;;;;;;0.90;0.85;;;17.70;72.40;;;;;;626422;225;26748;-66
2022/08/06 07:37:38;;;;;;;1.65;0.77;;;17.70;72.50;;;;;;634425;226;26815;-66
2022/08/06 07:40:07;;;;;;;1.20;1.10;;;17.50;72.40;;;;;;632811;225;26558;-66
2022/08/06 07:42:34;;;;;;;1.12;0.82;;;17.30;72.70;;;;;;633390;222;26604;-67
2022/08/06 07:45:02;;;;;;;1.00;0.90;;;17.20;73.60;;;;;;636819;225;26825;-67
2022/08/06 07:47:30;;;;;;;1.30;1.05;;;17.70;71.90;;;;;;631642;226;26549;-67
2022/08/06 07:49:58;;;;;;;0.80;0.80;;;17.70;72.00;;;;;;626920;226;26628;-67
2022/08/06 07:52:25;;;;;;;0.88;0.70;;;18.00;70.70;;;;;;611994;234;26651;-67
2022/08/06 07:54:52;;;;;;;1.15;0.60;;;18.00;69.50;;;;;;628520;225;26780;-67
2022/08/06 07:57:19;;;;;;;1.58;0.93;;;17.90;69.90;;;;;;630225;226;26609;-66
2022/08/06 07:59:47;;;;;;;2.22;1.20;;;18.90;65.20;;;;;;612678;234;27230;-66
2022/08/06 08:02:15;;;;;;;1.37;1.02;;;18.90;65.10;;;;;;606184;235;26539;-68
2022/08/06 08:07:17;;;;;;;1.42;0.73;;;19.00;64.10;;;;;;605969;235;26587;-67
2022/08/06 08:09:44;;;;;;;0.80;0.62;;;18.60;63.30;;;;;;628609;226;26598;-67
2022/08/06 08:12:12;;;;;;;0.77;0.77;;;18.70;63.30;;;;;;628582;226;27223;-66
2022/08/06 08:14:39;;;;;;;0.98;0.65;;;18.70;63.30;;;;;;631339;226;26569;-66
2022/08/06 08:17:07;;;;;;;0.65;0.60;;;19.10;60.50;;;;;;628934;226;26595;-66
2022/08/06 08:19:35;;;;;;;1.90;0.70;;;19.40;59.80;;;;;;632120;225;26581;-67
2022/08/06 08:22:05;;;;;;;0.98;0.90;;;19.80;58.90;;;;;;628492;225;26651;-67
2022/08/06 08:24:32;;;;;;;0.70;0.70;;;19.80;58.90;;;;;;628743;226;26632;-67
2022/08/06 08:26:59;;;;;;;1.10;0.80;;;20.00;59.00;;;;;;629947;225;26578;-67
2022/08/06 08:29:26;;;;;;;0.98;0.68;;;19.90;58.00;;;;;;628584;225;26871;-67
2022/08/06 08:31:53;;;;;;;0.75;0.65;;;20.00;57.60;;;;;;628475;226;26549;-67
2022/08/06 08:34:20;;;;;;;0.60;0.60;;;19.90;56.60;;;;;;628615;224;26611;-67
2022/08/06 08:36:48;;;;;;;1.77;0.70;;;19.70;56.60;;;;;;612369;233;26868;-67
2022/08/06 08:39:15;;;;;;;0.75;0.57;;;19.50;57.00;;;;;;629048;225;26548;-66
2022/08/06 08:41:44;;;;;;;0.52;0.52;;;18.90;57.90;;;;;;629663;226;26588;-66
2022/08/06 08:44:12;;;;;;;0.60;0.57;;;18.70;58.50;;;;;;630255;225;26639;-69
2022/08/06 08:46:40;;;;;;;1.23;0.60;;;18.80;57.60;;;;;;628744;226;26825;-66
2022/08/06 08:49:08;;;;;;;0.60;0.60;;;19.20;56.60;;;;;;627662;226;26602;-67
2022/08/06 08:51:36;;;;;;;0.60;0.60;;;19.20;56.60;;;;;;629350;225;26601;-67
2022/08/06 08:54:03;;;;;;;0.60;0.52;;;19.50;56.20;;;;;;627239;222;26825;-67
2022/08/06 08:56:30;;;;;;;0.45;0.45;;;19.60;55.20;;;;;;631317;225;26593;-66
2022/08/06 08:58:57;;;;;;;0.95;0.50;;;19.50;55.10;;;;;;629940;225;26534;-67
2022/08/06 09:01:24;;;;;;;1.48;0.45;;;19.50;54.50;;;;;;632590;226;26822;-67
2022/08/06 09:03:52;;;;;;;0.40;0.40;;;19.20;54.40;;;;;;629679;222;26569;-67
2022/08/06 09:06:19;;;;;;;2.03;0.50;;;19.20;53.80;;;;;;625351;227;26806;-67
2022/08/06 09:08:47;;;;;;;0.40;0.40;;;19.20;53.60;;;;;;625409;227;26586;-67
2022/08/06 09:11:13;;;;;;;0.80;0.60;;;19.80;53.70;;;;;;629896;226;26771;-67
2022/08/06 09:13:40;;;;;;;1.12;0.50;;;20.50;52.90;;;;;;624634;230;26614;-67
2022/08/06 09:16:08;;;;;;;0.50;0.50;;;20.90;52.00;;;;;;625228;230;26818;-68
2022/08/06 09:18:35;;;;;;;0.50;0.45;;;21.00;51.80;;;;;;624778;229;26595;-68
2022/08/06 09:21:03;;;;;;;0.90;0.60;;;20.90;51.20;;;;;;626459;227;26555;-67
2022/08/06 09:23:30;;;;;;;1.17;0.40;;;20.20;52.50;;;;;;629080;227;26568;-67
2022/08/06 09:25:58;;;;;;;0.30;0.30;;;20.10;51.70;;;;;;629492;227;26542;-68
2022/08/06 09:28:29;;;;;;;0.45;0.45;;;20.00;51.30;;;;;;625427;227;26601;-67
2022/08/06 09:30:59;;;;;;;0.45;0.45;;;20.00;51.30;;;;;;635872;225;26568;-67
2022/08/06 09:33:26;;;;;;;0.50;0.50;;;20.20;51.30;;;;;;633109;225;26564;-67
2022/08/06 09:35:58;;;;;;;1.00;0.50;;;21.00;49.70;;;;;;625788;226;26610;-67
2022/08/06 09:38:25;;;;;;;0.57;0.40;;;20.90;49.80;;;;;;633900;224;26589;-67
2022/08/06 09:41:03;;;;;;;0.55;0.43;;;21.20;49.70;;;;;;635666;225;26784;-67
2022/08/06 09:43:32;;;;;;;0.50;0.50;;;20.50;50.20;;;;;;631138;226;26609;-67
2022/08/06 09:45:59;;;;;;;0.68;0.43;;;20.40;50.30;;;;;;625681;230;26567;-67
2022/08/06 09:48:27;;;;;;;0.47;0.47;;;20.20;50.30;;;;;;625301;230;26540;-67
2022/08/06 09:50:55;;;;;;;0.45;0.40;;;20.40;50.20;;;;;;613420;233;26563;-67
2022/08/06 09:53:23;;;;;;;0.80;0.55;;;20.40;50.20;;;;;;629998;227;26564;-67
2022/08/06 09:55:50;;;;;;;0.52;0.52;;;20.30;50.70;;;;;;628718;225;26580;-67
2022/08/06 09:58:26;;;;;;;1.48;0.62;;;20.60;50.80;;;;;;633496;225;26807;-67
2022/08/06 10:00:53;;;;;;;0.60;0.60;;;20.80;50.40;;;;;;628050;225;26783;-67
2022/08/06 10:03:20;;;;;;;2.28;0.95;;;21.10;49.20;;;;;;614066;234;26581;-68
2022/08/06 10:05:47;;;;;;;1.48;0.88;;;21.30;48.50;;;;;;631461;226;26734;-68
2022/08/06 10:08:16;;;;;;;0.60;0.60;;;21.70;47.70;;;;;;624183;230;26604;-67
2022/08/06 10:10:44;;;;;;;1.95;0.88;;;21.70;47.70;;;;;;634814;225;26773;-67
2022/08/06 10:13:15;;;;;;;2.25;0.80;;;22.20;46.90;;;;;;635958;225;26564;-67
2022/08/06 10:15:44;;;;;;;1.00;0.77;;;22.00;47.00;;;;;;632317;226;26566;-67
2022/08/06 10:18:09;;;;;;;1.30;0.70;;;21.90;46.90;;;;;;624883;228;26800;-67
2022/08/06 10:20:37;;;;;;;1.90;0.70;;;20.80;48.30;;;;;;608424;234;26563;-67
2022/08/06 10:23:05;;;;;;;0.93;0.68;;;20.60;48.80;;;;;;613167;234;26619;-67
2022/08/06 10:25:33;;;;;;;0.80;0.77;;;20.80;49.20;;;;;;613043;234;26548;-67
2022/08/06 10:28:01;;;;;;;0.93;0.77;;;20.90;49.20;;;;;;617089;230;26580;-69
2022/08/06 10:30:28;;;;;;;1.10;0.60;;;20.90;49.20;;;;;;617275;230;26570;-68
2022/08/06 10:32:56;;;;;;;0.60;0.60;;;20.70;47.60;;;;;;612822;234;26583;-68
2022/08/06 10:35:23;;;;;;;1.50;0.65;;;20.50;47.80;;;;;;630511;228;26790;-68
2022/08/06 10:37:53;;;;;;;0.70;0.70;;;21.00;48.00;;;;;;631856;225;26606;-68
2022/08/06 10:40:19;;;;;;;0.75;0.55;;;21.80;47.50;;;;;;631606;225;26795;-68
2022/08/06 10:42:46;;;;;;;0.65;0.50;;;22.30;46.20;;;;;;630734;227;26573;-68
2022/08/06 10:45:13;;;;;;;2.28;0.60;;;22.00;45.90;;;;;;626998;226;26809;-68
2022/08/06 10:47:41;;;;;;;0.70;0.52;;;21.50;46.50;;;;;;630799;226;26516;-68
2022/08/06 10:50:10;;;;;;;0.98;0.45;;;21.50;47.20;;;;;;631036;224;26583;-68
2022/08/06 10:52:36;;;;;;;0.70;0.65;;;21.20;47.80;;;;;;630649;226;26541;-67
2022/08/06 10:55:05;;;;;;;0.62;0.62;;;21.10;47.50;;;;;;632770;226;26569;-68
2022/08/06 10:57:32;;;;;;;2.75;0.60;;;21.00;47.40;;;;;;634604;225;26494;-68
2022/08/06 11:00:00;;;;;;;0.57;0.57;;;20.80;46.50;;;;;;626267;227;26509;-68
2022/08/06 11:02:33;;;;;;;0.90;0.55;;;20.80;46.50;;;;;;608947;234;26761;-68
2022/08/06 11:05:01;;;;;;;0.47;0.47;;;21.00;45.90;;;;;;614133;234;26577;-69
2022/08/06 11:07:36;;;;;;;2.72;0.50;;;21.90;44.80;;;;;;631106;227;26564;-69
2022/08/06 11:10:11;;;;;;;0.40;0.40;;;21.90;44.80;;;;;;628247;227;26741;-68
2022/08/06 11:12:40;;;;;;;0.50;0.50;;;21.80;45.30;;;;;;627368;226;26591;-68
2022/08/06 11:15:08;;;;;;;0.65;0.50;;;21.50;45.30;;;;;;613231;234;26585;-68
2022/08/06 11:17:46;;;;;;;1.25;0.60;;;21.50;45.60;;;;;;613511;233;26601;-68
2022/08/06 11:20:36;;;;;;;0.43;0.40;;;21.40;45.50;;;;;;628971;227;26522;-68
2022/08/06 11:23:03;;;;;;;0.98;0.50;;;22.00;45.10;;;;;;630358;227;26622;-69
2022/08/06 11:25:36;;;;;;;0.40;0.40;;;22.30;43.20;;;;;;625681;230;26546;-69
2022/08/06 11:28:04;;;;;;;0.88;0.70;;;22.30;43.40;;;;;;607246;234;26583;-68
2022/08/06 11:30:37;;;;;;;0.47;0.47;;;23.10;42.60;;;;;;618516;231;26575;-69
2022/08/06 11:33:05;;;;;;;0.93;0.62;;;23.10;42.60;;;;;;626099;226;26600;-68
2022/08/06 11:35:43;;;;;;;0.95;0.65;;;22.80;42.70;;;;;;627051;226;26591;-65
2022/08/06 11:38:10;;;;;;;0.68;0.68;;;22.50;43.10;;;;;;627360;226;26658;-65
2022/08/06 11:40:54;;;;;;;0.55;0.55;;;21.80;43.50;;;;;;608980;235;26582;-65
2022/08/06 11:43:28;;;;;;;0.37;0.32;;;21.30;44.00;;;;;;612431;234;26562;-65
2022/08/06 11:46:02;;;;;;;1.42;0.40;;;21.30;44.00;;;;;;615345;231;26858;-65
2022/08/06 11:48:30;;;;;;;0.50;0.50;;;21.40;44.80;;;;;;627308;227;26622;-65
2022/08/06 11:50:57;;;;;;;2.58;0.70;;;21.60;44.10;;;;;;624621;229;26846;-65
2022/08/06 11:53:32;;;;;;;0.60;0.50;;;21.90;44.60;;;;;;623445;230;26626;-65
2022/08/06 11:56:03;;;;;;;0.93;0.60;;;22.00;43.40;;;;;;606874;234;26531;-65
2022/08/06 11:58:31;;;;;;;0.55;0.55;;;22.00;42.90;;;;;;618826;231;26587;-65
2022/08/06 12:01:00;;;;;;;0.70;0.70;;;21.90;43.20;;;;;;626942;226;26567;-65
2022/08/06 12:03:36;;;;;;;1.15;0.60;;;21.90;43.10;;;;;;636874;225;26826;-65
2022/08/06 12:06:03;;;;;;;0.50;0.50;;;21.80;43.10;;;;;;626281;230;26556;-65
2022/08/06 12:08:32;;;;;;;0.52;0.40;;;21.90;42.50;;;;;;631295;226;26571;-65
2022/08/06 12:11:11;;;;;;;0.57;0.47;;;21.90;42.50;;;;;;636589;226;26574;-65
2022/08/06 12:13:38;;;;;;;0.55;0.45;;;22.20;41.90;;;;;;633867;226;26573;-65
2022/08/06 12:16:05;;;;;;;0.60;0.60;;;22.70;41.00;;;;;;629367;227;26587;-65
2022/08/06 12:18:36;;;;;;;0.50;0.50;;;23.20;40.50;;;;;;632181;226;26555;-65
2022/08/06 12:21:11;;;;;;;1.48;0.35;;;23.20;40.50;;;;;;626944;225;26516;-65
2022/08/06 12:23:38;;;;;;;0.52;0.47;;;23.60;40.20;;;;;;628459;226;26610;-65
2022/08/06 12:26:06;;;;;;;0.52;0.50;;;23.90;39.80;;;;;;631381;225;26953;-65
2022/08/06 12:28:33;;;;;;;0.40;0.40;;;24.10;40.00;;;;;;630225;227;26775;-65
2022/08/06 12:31:01;;;;;;;0.85;0.55;;;24.10;39.00;;;;;;626985;226;26533;-65
2022/08/06 12:33:28;;;;;;;0.35;0.35;;;24.00;38.70;;;;;;630393;225;26834;-64
2022/08/06 12:35:59;;;;;;;0.50;0.37;;;24.50;37.40;;;;;;632466;226;26523;-65
2022/08/06 12:38:29;;;;;;;0.60;0.60;;;24.40;37.50;;;;;;628645;222;26556;-65
2022/08/06 12:41:01;;;;;;;1.17;0.50;;;24.40;37.30;;;;;;627426;226;26585;-65
2022/08/06 12:43:28;;;;;;;1.20;0.50;;;24.40;37.40;;;;;;621671;230;26584;-65
2022/08/06 12:45:59;;;;;;;0.35;0.35;;;24.10;38.40;;;;;;632373;226;26608;-65
2022/08/06 12:48:27;;;;;;;0.40;0.40;;;23.70;38.10;;;;;;630017;227;26556;-65
2022/08/06 12:51:06;;;;;;;0.80;0.57;;;23.70;38.10;;;;;;625196;227;26557;-64
2022/08/06 12:53:33;;;;;;;1.65;0.70;;;23.50;38.40;;;;;;622117;230;26702;-64
2022/08/06 12:56:00;;;;;;;0.85;0.50;;;23.50;38.90;;;;;;616906;229;26806;-65
2022/08/06 12:58:29;;;;;;;0.47;0.47;;;23.60;38.50;;;;;;612594;233;26548;-65